createdAt,value
2018-05-16T00:02:05.373Z,12.50
2018-05-16T00:04:32.813Z,12.50
2018-05-16T00:07:01.043Z,12.50
2018-05-16T00:09:28.595Z,12.40
2018-05-16T00:11:56.248Z,12.50
2018-05-16T00:14:23.695Z,12.40
2018-05-16T00:16:51.155Z,12.30
2018-05-16T00:19:18.615Z,12.40
2018-05-16T00:21:46.070Z,12.40
2018-05-16T00:24:13.525Z,12.40
2018-05-16T00:26:40.987Z,12.40
2018-05-16T00:29:08.444Z,12.40
2018-05-16T00:31:35.911Z,12.40
2018-05-16T00:34:03.349Z,12.40
2018-05-16T00:36:30.798Z,12.40
2018-05-16T00:38:58.263Z,12.50
2018-05-16T00:41:25.710Z,12.50
2018-05-16T00:43:53.153Z,12.60
2018-05-16T00:46:20.602Z,12.60
2018-05-16T00:48:48.836Z,12.70
2018-05-16T00:54:07.613Z,12.80
2018-05-16T00:56:35.063Z,12.70
2018-05-16T00:59:02.521Z,12.60
2018-05-16T01:01:30.013Z,12.70
2018-05-16T01:03:58.213Z,12.70
2018-05-16T01:06:25.677Z,12.70
2018-05-16T01:08:53.117Z,12.70
2018-05-16T01:11:20.574Z,12.50
2018-05-16T01:13:48.915Z,12.50
2018-05-16T01:16:16.376Z,12.60
2018-05-16T01:18:43.813Z,12.60
2018-05-16T01:21:11.262Z,12.60
2018-05-16T01:23:38.718Z,12.60
2018-05-16T01:26:06.173Z,12.60
2018-05-16T01:28:33.628Z,12.70
2018-05-16T01:31:01.065Z,12.70
2018-05-16T01:33:28.521Z,12.70
2018-05-16T01:35:55.978Z,12.80
2018-05-16T01:38:23.438Z,12.80
2018-05-16T01:40:50.926Z,12.90
2018-05-16T01:43:18.377Z,12.80
2018-05-16T01:45:45.836Z,12.80
2018-05-16T01:48:13.280Z,12.80
2018-05-16T01:50:40.732Z,12.90
2018-05-16T01:53:08.196Z,12.90
2018-05-16T01:55:35.639Z,12.90
2018-05-16T01:58:03.084Z,12.90
2018-05-16T02:00:30.541Z,12.80
2018-05-16T02:02:58.029Z,12.90
2018-05-16T02:05:25.461Z,12.60
2018-05-16T02:07:52.942Z,12.90
2018-05-16T02:10:20.389Z,12.90
2018-05-16T02:12:47.850Z,12.90
2018-05-16T02:15:15.305Z,12.90
2018-05-16T02:17:42.815Z,12.90
2018-05-16T02:20:11.022Z,12.90
2018-05-16T02:22:38.488Z,12.90
2018-05-16T02:25:05.935Z,13.00
2018-05-16T02:27:33.397Z,13.00
2018-05-16T02:30:00.844Z,13.00
2018-05-16T02:32:28.308Z,12.90
2018-05-16T02:34:55.767Z,12.90
2018-05-16T02:37:23.240Z,12.90
2018-05-16T02:39:50.675Z,12.90
2018-05-16T02:42:18.358Z,12.90
2018-05-16T02:44:45.808Z,12.90
2018-05-16T02:47:13.276Z,12.90
2018-05-16T02:49:40.718Z,12.90
2018-05-16T02:52:08.175Z,12.90
2018-05-16T02:54:35.627Z,12.90
2018-05-16T02:57:03.080Z,12.80
2018-05-16T02:59:30.538Z,12.90
2018-05-16T03:01:57.988Z,12.70
2018-05-16T03:04:25.448Z,12.80
2018-05-16T03:06:52.901Z,12.90
2018-05-16T03:09:20.368Z,12.80
2018-05-16T03:11:47.840Z,12.80
2018-05-16T03:14:15.279Z,12.80
2018-05-16T03:16:42.720Z,12.80
2018-05-16T03:19:10.192Z,12.90
2018-05-16T03:21:37.650Z,12.80
2018-05-16T03:24:05.105Z,12.80
2018-05-16T03:26:32.564Z,12.70
2018-05-16T03:29:00.016Z,12.70
2018-05-16T03:31:27.462Z,12.70
2018-05-16T03:33:54.925Z,12.70
2018-05-16T03:36:22.379Z,12.70
2018-05-16T03:38:50.516Z,12.70
2018-05-16T03:41:18.736Z,12.70
2018-05-16T03:43:46.188Z,12.60
2018-05-16T03:46:13.648Z,12.70
2018-05-16T03:48:41.086Z,12.70
2018-05-16T03:51:08.541Z,12.70
2018-05-16T03:53:35.982Z,12.70
2018-05-16T03:56:04.194Z,12.70
2018-05-16T03:58:43.527Z,12.60
2018-05-16T04:01:22.861Z,13.00
2018-05-16T04:04:02.207Z,12.30
2018-05-16T04:06:29.655Z,12.60
2018-05-16T04:08:57.102Z,12.60
2018-05-16T04:11:24.549Z,12.60
2018-05-16T04:13:52.036Z,12.70
2018-05-16T04:16:19.491Z,12.60
2018-05-16T04:18:46.957Z,12.70
2018-05-16T04:21:14.391Z,12.70
2018-05-16T04:23:41.841Z,12.70
2018-05-16T04:26:09.283Z,12.70
2018-05-16T04:28:36.732Z,12.70
2018-05-16T04:31:04.950Z,12.70
2018-05-16T04:33:32.407Z,12.60
2018-05-16T04:35:59.868Z,12.70
2018-05-16T04:38:27.350Z,12.70
2018-05-16T04:40:54.797Z,12.70
2018-05-16T04:43:22.272Z,12.70
2018-05-16T04:45:49.720Z,12.70
2018-05-16T04:48:17.180Z,12.80
2018-05-16T04:50:44.628Z,12.80
2018-05-16T04:53:12.103Z,12.70
2018-05-16T04:55:39.544Z,12.70
2018-05-16T04:58:06.991Z,12.70
2018-05-16T05:00:34.433Z,12.50
2018-05-16T05:03:01.885Z,12.70
2018-05-16T05:05:29.331Z,12.90
2018-05-16T05:07:56.781Z,12.70
2018-05-16T05:10:24.263Z,12.50
2018-05-16T05:12:51.718Z,12.60
2018-05-16T05:15:19.184Z,12.60
2018-05-16T05:17:47.393Z,12.60
2018-05-16T05:20:15.610Z,12.50
2018-05-16T05:22:43.068Z,12.50
2018-05-16T05:25:10.523Z,12.60
2018-05-16T05:27:37.966Z,12.60
2018-05-16T05:30:05.418Z,12.50
2018-05-16T05:32:32.875Z,12.60
2018-05-16T05:35:00.342Z,12.60
2018-05-16T05:37:27.782Z,12.60
2018-05-16T05:39:55.246Z,12.60
2018-05-16T05:42:22.684Z,12.60
2018-05-16T05:44:50.911Z,12.60
2018-05-16T05:47:18.396Z,12.50
2018-05-16T05:49:45.848Z,12.60
2018-05-16T05:52:13.302Z,12.50
2018-05-16T05:54:40.760Z,12.50
2018-05-16T05:57:08.206Z,12.60
2018-05-16T05:59:35.653Z,12.60
2018-05-16T06:02:03.110Z,12.60
2018-05-16T06:04:30.555Z,12.40
2018-05-16T06:06:58.008Z,12.40
2018-05-16T06:09:25.477Z,12.60
2018-05-16T06:11:52.937Z,12.70
2018-05-16T06:14:20.398Z,12.70
2018-05-16T06:16:47.848Z,12.70
2018-05-16T06:19:15.306Z,12.70
2018-05-16T06:21:42.759Z,12.70
2018-05-16T06:24:10.209Z,12.80
2018-05-16T06:26:37.654Z,12.80
2018-05-16T06:29:05.124Z,12.80
2018-05-16T06:31:32.588Z,12.90
2018-05-16T06:34:00.041Z,12.80
2018-05-16T06:36:27.523Z,12.80
2018-05-16T06:38:55.004Z,12.80
2018-05-16T06:41:23.214Z,12.70
2018-05-16T06:43:50.673Z,12.70
2018-05-16T06:46:18.120Z,12.80
2018-05-16T06:48:45.586Z,12.90
2018-05-16T06:51:13.051Z,12.90
2018-05-16T06:53:40.494Z,12.90
2018-05-16T06:56:07.953Z,12.90
2018-05-16T06:58:35.406Z,12.90
2018-05-16T07:01:02.884Z,13.00
2018-05-16T07:03:30.331Z,13.00
2018-05-16T07:05:57.792Z,12.90
2018-05-16T07:08:25.244Z,12.70
2018-05-16T07:10:52.753Z,12.90
2018-05-16T07:13:20.971Z,12.90
2018-05-16T07:15:48.433Z,12.80
2018-05-16T07:18:16.659Z,12.90
2018-05-16T07:20:44.886Z,12.90
2018-05-16T07:23:12.334Z,12.90
2018-05-16T07:25:39.783Z,13.00
2018-05-16T07:28:07.230Z,13.00
2018-05-16T07:30:34.670Z,13.00
2018-05-16T07:33:02.887Z,13.10
2018-05-16T07:35:30.338Z,13.10
2018-05-16T07:37:57.788Z,13.10
2018-05-16T07:40:25.228Z,13.10
2018-05-16T07:42:52.661Z,13.10
2018-05-16T07:45:20.898Z,13.30
2018-05-16T07:47:48.357Z,13.20
2018-05-16T07:50:15.813Z,13.30
2018-05-16T07:52:43.271Z,13.30
2018-05-16T07:55:10.721Z,13.30
2018-05-16T07:57:38.160Z,13.30
2018-05-16T08:00:05.613Z,13.30
2018-05-16T08:02:33.071Z,13.30
2018-05-16T08:05:00.527Z,13.70
2018-05-16T08:07:27.968Z,13.40
2018-05-16T08:09:55.423Z,13.20
2018-05-16T08:12:22.923Z,13.20
2018-05-16T08:14:50.360Z,13.20
2018-05-16T08:17:18.591Z,13.20
2018-05-16T08:19:46.823Z,13.20
2018-05-16T08:22:14.297Z,13.10
2018-05-16T08:24:41.935Z,13.20
2018-05-16T08:27:09.397Z,13.30
2018-05-16T08:29:36.860Z,13.20
2018-05-16T08:32:04.324Z,13.20
2018-05-16T08:34:31.794Z,13.30
2018-05-16T08:36:59.251Z,13.40
2018-05-16T08:39:26.698Z,13.50
2018-05-16T08:41:54.158Z,13.60
2018-05-16T08:44:21.618Z,13.60
2018-05-16T08:46:49.051Z,13.70
2018-05-16T08:49:16.503Z,13.70
2018-05-16T08:51:43.948Z,13.70
2018-05-16T08:54:11.414Z,13.70
2018-05-16T08:56:38.871Z,13.70
2018-05-16T08:59:06.336Z,13.80
2018-05-16T09:01:33.783Z,13.80
2018-05-16T09:04:01.236Z,13.80
2018-05-16T09:06:28.686Z,13.90
2018-05-16T09:08:56.137Z,13.90
2018-05-16T09:11:23.582Z,13.60
2018-05-16T09:13:51.026Z,13.90
2018-05-16T09:16:19.266Z,13.90
2018-05-16T09:18:46.705Z,13.90
2018-05-16T09:21:14.150Z,13.90
2018-05-16T09:23:41.605Z,13.90
2018-05-16T09:26:09.073Z,13.90
2018-05-16T09:28:36.525Z,13.90
2018-05-16T09:31:03.980Z,14.00
2018-05-16T09:33:31.441Z,14.00
2018-05-16T09:35:58.908Z,14.00
2018-05-16T09:38:27.128Z,14.00
2018-05-16T09:40:55.342Z,14.00
2018-05-16T09:43:22.800Z,14.00
2018-05-16T09:45:50.304Z,14.00
2018-05-16T09:48:18.523Z,14.10
2018-05-16T09:50:45.972Z,14.10
2018-05-16T09:53:13.428Z,14.10
2018-05-16T09:55:40.875Z,14.20
2018-05-16T09:58:08.338Z,14.20
2018-05-16T10:00:35.778Z,14.20
2018-05-16T10:03:04.369Z,14.20
2018-05-16T10:05:31.823Z,14.10
2018-05-16T10:07:59.275Z,14.20
2018-05-16T10:10:27.487Z,14.30
2018-05-16T10:12:55.703Z,14.30
2018-05-16T10:15:23.156Z,14.20
2018-05-16T10:17:50.611Z,14.30
2018-05-16T10:20:18.102Z,14.30
2018-05-16T10:22:45.511Z,14.30
2018-05-16T10:25:12.967Z,14.30
2018-05-16T10:27:40.407Z,14.30
2018-05-16T10:30:07.862Z,14.40
2018-05-16T10:32:35.310Z,14.40
2018-05-16T10:35:03.523Z,14.50
2018-05-16T10:37:30.989Z,14.40
2018-05-16T10:39:58.446Z,14.40
2018-05-16T10:42:26.070Z,14.50
2018-05-16T10:44:54.123Z,14.50
2018-05-16T10:47:22.384Z,14.60
2018-05-16T10:49:49.776Z,14.60
2018-05-16T10:52:17.235Z,14.70
2018-05-16T10:54:44.672Z,14.60
2018-05-16T10:57:12.117Z,14.60
2018-05-16T10:59:39.558Z,14.60
2018-05-16T11:02:07.012Z,14.70
2018-05-16T11:04:35.223Z,14.70
2018-05-16T11:07:02.673Z,14.70
2018-05-16T11:09:30.108Z,15.40
2018-05-16T11:11:57.554Z,14.50
2018-05-16T11:14:25.755Z,14.50
2018-05-16T11:16:53.211Z,14.50
2018-05-16T11:19:21.786Z,14.50
2018-05-16T11:21:49.240Z,14.80
2018-05-16T11:24:16.676Z,14.50
2018-05-16T11:26:44.892Z,14.60
2018-05-16T11:29:12.343Z,14.60
2018-05-16T11:31:39.791Z,14.60
2018-05-16T11:34:07.246Z,14.60
2018-05-16T11:36:34.715Z,14.60
2018-05-16T11:39:02.143Z,14.60
2018-05-16T11:41:29.618Z,14.60
2018-05-16T11:43:57.064Z,14.60
2018-05-16T11:46:24.532Z,14.60
2018-05-16T11:48:52.078Z,14.70
2018-05-16T11:51:19.432Z,14.70
2018-05-16T11:53:46.892Z,14.60
2018-05-16T11:56:14.348Z,14.70
2018-05-16T11:58:41.805Z,14.60
2018-05-16T12:01:09.272Z,14.40
2018-05-16T12:03:36.761Z,14.30
2018-05-16T12:06:04.224Z,14.20
2018-05-16T12:08:31.664Z,14.10
2018-05-16T12:10:59.113Z,14.00
2018-05-16T12:13:26.559Z,14.10
2018-05-16T12:15:54.023Z,14.30
2018-05-16T12:18:21.466Z,14.20
2018-05-16T12:20:48.930Z,14.20
2018-05-16T12:23:16.387Z,14.30
2018-05-16T12:25:43.827Z,14.50
2018-05-16T12:28:11.283Z,14.50
2018-05-16T12:30:38.734Z,14.60
2018-05-16T12:33:06.191Z,14.80
2018-05-16T12:35:33.646Z,14.70
2018-05-16T12:38:01.130Z,14.60
2018-05-16T12:40:28.585Z,14.50
2018-05-16T12:43:07.755Z,14.60
2018-05-16T12:45:35.204Z,14.60
2018-05-16T12:48:02.664Z,14.70
2018-05-16T12:50:30.114Z,14.70
2018-05-16T12:52:57.567Z,14.70
2018-05-16T12:55:25.036Z,14.70
2018-05-16T12:57:52.487Z,14.60
2018-05-16T13:00:19.931Z,14.70
2018-05-16T13:02:47.394Z,14.70
2018-05-16T13:05:14.848Z,14.70
2018-05-16T13:07:42.295Z,14.80
2018-05-16T13:10:09.752Z,14.80
2018-05-16T13:12:37.190Z,14.60
2018-05-16T13:15:04.627Z,14.70
2018-05-16T13:17:32.062Z,15.20
2018-05-16T13:20:00.294Z,14.70
2018-05-16T13:22:27.750Z,14.60
2018-05-16T13:24:55.216Z,14.60
2018-05-16T13:27:22.677Z,14.60
2018-05-16T13:29:50.118Z,14.60
2018-05-16T13:32:17.589Z,14.50
2018-05-16T13:34:45.030Z,14.60
2018-05-16T13:37:12.479Z,14.60
2018-05-16T13:39:39.927Z,14.50
2018-05-16T13:42:07.387Z,14.40
2018-05-16T13:44:34.828Z,14.50
2018-05-16T13:47:02.404Z,14.60
2018-05-16T13:49:29.825Z,14.50
2018-05-16T13:51:58.069Z,14.60
2018-05-16T13:54:25.510Z,14.50
2018-05-16T13:56:52.973Z,14.60
2018-05-16T13:59:20.410Z,14.60
2018-05-16T14:01:47.868Z,14.60
2018-05-16T14:04:15.323Z,14.50
2018-05-16T14:06:42.796Z,14.30
2018-05-16T14:09:10.238Z,14.30
2018-05-16T14:11:37.695Z,14.30
2018-05-16T14:14:05.153Z,14.30
2018-05-16T14:16:32.628Z,14.70
2018-05-16T14:19:00.076Z,14.40
2018-05-16T14:21:27.539Z,14.00
2018-05-16T14:23:55.104Z,14.10
2018-05-16T14:26:23.253Z,14.10
2018-05-16T14:28:51.329Z,14.10
2018-05-16T14:31:18.783Z,14.10
2018-05-16T14:33:46.231Z,14.20
2018-05-16T14:36:13.717Z,14.20
2018-05-16T14:38:41.131Z,14.20
2018-05-16T14:41:08.585Z,14.20
2018-05-16T14:43:36.043Z,14.20
2018-05-16T14:46:03.490Z,14.10
2018-05-16T14:48:31.806Z,13.80
2018-05-16T14:50:59.174Z,13.80
2018-05-16T14:53:26.631Z,13.90
2018-05-16T14:55:54.092Z,14.00
2018-05-16T14:58:21.551Z,14.20
2018-05-16T15:00:49.470Z,14.20
2018-05-16T15:03:16.914Z,14.30
2018-05-16T15:05:45.130Z,14.40
2018-05-16T15:08:12.596Z,14.40
2018-05-16T15:10:40.055Z,14.40
2018-05-16T15:13:07.511Z,14.50
2018-05-16T15:15:34.976Z,14.60
2018-05-16T15:18:02.412Z,14.60
2018-05-16T15:20:29.903Z,14.50
2018-05-16T15:22:57.337Z,14.60
2018-05-16T15:25:24.775Z,14.50
2018-05-16T15:27:52.227Z,14.50
2018-05-16T15:30:19.683Z,14.50
2018-05-16T15:32:47.129Z,14.60
2018-05-16T15:35:14.602Z,14.60
2018-05-16T15:37:42.062Z,14.60
2018-05-16T15:40:09.508Z,14.60
2018-05-16T15:42:36.975Z,14.60
2018-05-16T15:45:04.432Z,14.60
2018-05-16T15:47:31.887Z,14.60
2018-05-16T15:49:59.345Z,14.60
2018-05-16T15:52:26.815Z,14.60
2018-05-16T15:54:54.264Z,14.50
2018-05-16T15:57:21.734Z,14.50
2018-05-16T15:59:49.292Z,14.40
2018-05-16T16:02:16.639Z,14.40
2018-05-16T16:04:44.082Z,14.50
2018-05-16T16:07:11.547Z,14.50
2018-05-16T16:09:39.008Z,14.50
2018-05-16T16:12:06.466Z,14.50
2018-05-16T16:14:33.904Z,14.50
2018-05-16T16:17:01.359Z,14.40
2018-05-16T16:19:28.824Z,14.50
2018-05-16T16:21:56.275Z,14.50
2018-05-16T16:24:23.745Z,14.50
2018-05-16T16:26:51.201Z,14.40
2018-05-16T16:29:18.651Z,14.50
2018-05-16T16:31:46.100Z,14.50
2018-05-16T16:34:13.563Z,14.60
2018-05-16T16:36:41.010Z,14.50
2018-05-16T16:39:09.245Z,14.40
2018-05-16T16:41:36.663Z,14.40
2018-05-16T16:44:04.132Z,14.40
2018-05-16T16:46:31.577Z,14.30
2018-05-16T16:48:59.023Z,14.30
2018-05-16T16:51:26.480Z,14.30
2018-05-16T16:53:53.942Z,14.30
2018-05-16T16:56:21.387Z,14.40
2018-05-16T16:58:48.829Z,14.30
2018-05-16T17:01:16.271Z,14.30
2018-05-16T17:03:43.727Z,14.40
2018-05-16T17:06:11.936Z,14.30
2018-05-16T17:08:39.383Z,14.30
2018-05-16T17:11:06.830Z,14.20
2018-05-16T17:13:34.281Z,14.20
2018-05-16T17:16:01.751Z,14.10
2018-05-16T17:18:29.194Z,14.10
2018-05-16T17:20:56.644Z,14.10
2018-05-16T17:23:24.097Z,13.80
2018-05-16T17:25:52.327Z,14.10
2018-05-16T17:28:19.778Z,14.10
2018-05-16T17:30:47.215Z,14.10
2018-05-16T17:33:14.741Z,14.10
2018-05-16T17:35:42.117Z,14.10
2018-05-16T17:38:09.566Z,14.00
2018-05-16T17:40:37.049Z,14.10
2018-05-16T17:43:04.501Z,14.10
2018-05-16T17:45:32.012Z,14.00
2018-05-16T17:47:59.452Z,14.00
2018-05-16T17:50:26.896Z,14.00
2018-05-16T17:52:54.364Z,13.90
2018-05-16T17:55:21.817Z,13.90
2018-05-16T17:57:49.277Z,13.90
2018-05-16T18:00:17.247Z,13.90
2018-05-16T18:02:44.715Z,13.80
2018-05-16T18:05:12.155Z,13.80
2018-05-16T18:07:39.612Z,13.90
2018-05-16T18:10:07.069Z,13.90
2018-05-16T18:12:34.514Z,13.80
2018-05-16T18:15:18.646Z,13.80
2018-05-16T18:17:46.091Z,13.80
2018-05-16T18:20:13.539Z,13.80
2018-05-16T18:22:40.982Z,13.70
2018-05-16T18:25:08.445Z,13.70
2018-05-16T18:27:35.880Z,13.60
2018-05-16T18:30:04.110Z,13.80
2018-05-16T18:32:31.542Z,13.70
2018-05-16T18:34:58.982Z,13.80
2018-05-16T18:37:26.433Z,13.80
2018-05-16T18:39:54.685Z,13.60
2018-05-16T18:42:22.170Z,13.60
2018-05-16T18:44:49.546Z,13.60
2018-05-16T18:47:16.999Z,13.60
2018-05-16T18:49:44.468Z,13.60
2018-05-16T18:52:11.923Z,13.60
2018-05-16T18:54:39.382Z,13.60
2018-05-16T18:57:06.837Z,13.60
2018-05-16T18:59:34.293Z,13.60
2018-05-16T19:02:01.737Z,13.50
2018-05-16T19:04:29.193Z,13.50
2018-05-16T19:06:56.633Z,13.50
2018-05-16T19:09:24.093Z,13.50
2018-05-16T19:11:52.312Z,13.50
2018-05-16T19:14:19.777Z,13.50
2018-05-16T19:16:47.215Z,13.50
2018-05-16T19:19:14.658Z,13.50
2018-05-16T19:21:42.883Z,13.60
2018-05-16T19:24:10.334Z,13.50
2018-05-16T19:26:37.799Z,13.50
2018-05-16T19:29:05.242Z,13.50
2018-05-16T19:31:32.685Z,13.40
2018-05-16T19:34:00.894Z,13.40
2018-05-16T19:36:29.123Z,13.40
2018-05-16T19:38:56.566Z,13.40
2018-05-16T19:41:23.998Z,13.40
2018-05-16T19:43:51.442Z,13.40
2018-05-16T19:46:19.751Z,13.40
2018-05-16T19:48:47.108Z,13.40
2018-05-16T19:51:14.729Z,13.40
2018-05-16T19:53:42.943Z,13.40
2018-05-16T19:56:10.403Z,13.30
2018-05-16T19:58:37.929Z,13.40
2018-05-16T20:01:05.300Z,13.50
2018-05-16T20:03:32.751Z,13.50
2018-05-16T20:06:00.204Z,13.40
2018-05-16T20:08:27.681Z,13.40
2018-05-16T20:10:55.140Z,13.30
2018-05-16T20:13:22.596Z,13.40
2018-05-16T20:15:50.047Z,13.30
2018-05-16T20:18:17.514Z,13.00
2018-05-16T20:20:44.963Z,13.40
2018-05-16T20:23:12.417Z,13.40
2018-05-16T20:25:39.880Z,13.50
2018-05-16T20:28:07.322Z,13.50
2018-05-16T20:30:34.774Z,13.40
2018-05-16T20:33:02.226Z,13.40
2018-05-16T20:35:29.687Z,13.30
2018-05-16T20:37:57.129Z,13.30
2018-05-16T20:40:25.357Z,13.30
2018-05-16T20:42:52.801Z,13.20
2018-05-16T20:45:20.331Z,13.20
2018-05-16T20:47:47.690Z,13.20
2018-05-16T20:50:15.142Z,13.30
2018-05-16T20:52:42.574Z,13.30
2018-05-16T20:55:10.024Z,13.30
2018-05-16T20:57:37.468Z,13.30
2018-05-16T21:00:04.941Z,13.30
2018-05-16T21:02:32.373Z,13.20
2018-05-16T21:04:59.833Z,13.20
2018-05-16T21:07:27.274Z,13.20
2018-05-16T21:09:54.732Z,13.20
2018-05-16T21:12:22.188Z,13.10
2018-05-16T21:14:49.637Z,13.20
2018-05-16T21:17:17.080Z,13.20
2018-05-16T21:19:44.810Z,13.30
2018-05-16T21:22:12.419Z,13.20
2018-05-16T21:24:39.892Z,13.30
2018-05-16T21:27:07.345Z,13.30
2018-05-16T21:29:34.795Z,13.30
2018-05-16T21:32:02.252Z,13.30
2018-05-16T21:34:29.705Z,13.30
2018-05-16T21:36:57.164Z,13.30
2018-05-16T21:39:24.602Z,13.30
2018-05-16T21:41:52.061Z,13.20
2018-05-16T21:44:20.267Z,13.20
2018-05-16T21:46:47.718Z,13.20
2018-05-16T21:49:15.178Z,13.20
2018-05-16T21:51:42.619Z,13.20
2018-05-16T21:54:10.059Z,13.20
2018-05-16T21:56:37.505Z,13.20
2018-05-16T21:59:04.953Z,13.20
2018-05-16T22:01:32.407Z,13.20
2018-05-16T22:04:00.602Z,13.20
2018-05-16T22:06:28.052Z,13.10
2018-05-16T22:08:56.036Z,13.20
2018-05-16T22:11:23.490Z,13.20
2018-05-16T22:13:50.926Z,13.20
2018-05-16T22:16:18.389Z,13.30
2018-05-16T22:18:45.823Z,13.10
2018-05-16T22:21:14.039Z,13.10
2018-05-16T22:23:41.479Z,13.10
2018-05-16T22:26:08.933Z,13.10
2018-05-16T22:28:36.388Z,13.10
2018-05-16T22:31:09.541Z,13.10
2018-05-16T22:33:42.701Z,13.10
2018-05-16T22:36:15.992Z,13.10
2018-05-16T22:38:49.266Z,13.00
2018-05-16T22:41:22.340Z,13.00
2018-05-16T22:43:50.549Z,13.00
2018-05-16T22:46:18.596Z,13.00
2018-05-16T22:48:46.800Z,13.00
2018-05-16T22:51:14.256Z,12.90
2018-05-16T22:53:41.699Z,13.00
2018-05-16T22:56:09.924Z,13.00
2018-05-16T22:58:38.132Z,13.00
2018-05-16T23:01:05.605Z,12.90
2018-05-16T23:03:33.042Z,13.10
2018-05-16T23:06:00.486Z,13.10
2018-05-16T23:08:28.695Z,13.00
2018-05-16T23:10:56.153Z,12.90
2018-05-16T23:13:23.585Z,12.90
2018-05-16T23:15:51.036Z,13.00
2018-05-16T23:18:18.492Z,13.00
2018-05-16T23:20:45.935Z,13.00
2018-05-16T23:23:14.155Z,13.00
2018-05-16T23:25:41.603Z,13.40
2018-05-16T23:28:09.065Z,13.00
2018-05-16T23:30:36.511Z,13.00
2018-05-16T23:33:03.955Z,13.10
2018-05-16T23:35:31.399Z,13.00
2018-05-16T23:37:58.999Z,13.10
2018-05-16T23:40:26.437Z,13.10
2018-05-16T23:42:53.908Z,13.10
2018-05-16T23:45:21.352Z,13.10
2018-05-16T23:47:48.807Z,13.10
2018-05-16T23:50:16.264Z,13.10
2018-05-16T23:52:43.727Z,13.00
2018-05-16T23:55:11.175Z,13.00
2018-05-16T23:57:38.632Z,13.00
